Elizabeth, NJ

6:44 AM EDT on October 22, 2014 (GMT -0400)
Kean University Science Building Rooftop | Change Station
CLOSE
Current Station
Personal Weather Station
Location: Union, NJ
Elevation: 40 ft
Nearby Weather Stations
Active Advisory: Areal Flood Advisory

Elev 40 ft 40.68 °N, 74.23 °W | Updated 49 seconds ago

Light Rain
Light Rain
55.0 °F
Feels Like 55.0 °F
N
7.0
Wind Variable Wind from NNE
Gusts 14.0 mph

Today
High -- | Low -- °F
--% Chance of Precip.
Yesterday
High -- | Low -- °F
Precip. -- in
7:15 AM 6:06 PM
Waning Crescent, 2% visible
Pressure 29.89 in
Visibility 9.0 miles
Clouds Few 600 ft
Scattered Clouds 900 ft
Overcast 7000 ft
Dew Point 53 °F
Humidity 92%
Rainfall -999.00 in
Snow Depth Not available.
UV 0 out of 12
Pollen .70 out of 12
Air Quality Not available.
Flu Activity Sporadic
METAR KEWR 220951Z 03010KT 9SM -RA FEW006 SCT009 OVC070 13/12 A2989 RMK AO2 TSB0857E15 SLP122 P0009 T01330122

More Conditions Fewer Conditions

Pressure 29.89 in
Visibility 9.0 miles
Clouds Few 600 ft
Scattered Clouds 900 ft
Overcast 7000 ft
Dew Point 53 °F
Humidity 92%
Rainfall -999.00 in
Snow Depth Not available.
UV 0 out of 12
Pollen .70 out of 12
Air Quality Not available.
Flu Activity Sporadic
METAR KEWR 220951Z 03010KT 9SM -RA FEW006 SCT009 OVC070 13/12 A2989 RMK AO2 TSB0857E15 SLP122 P0009 T01330122

More Conditions Fewer Conditions

10-Day Weather Forecast

Almanac

Astronomy

Oct. 22, 2014 Rise Set
Actual Time 7:15 AM EDT 6:06 PM EDT
Civil Twilight 6:47 AM EDT 6:34 PM EDT
Nautical Twilight 6:15 AM EDT 7:05 PM EDT
Astronomical Twilight 5:44 AM EDT 7:37 PM EDT
Moon 5:53 AM EDT 5:31 PM EDT
Length of Visible Light 11h 46m
Length of Day
10h 50m
Tomorrow will be 2m 32s shorter.
Waning Crescent, 2% of the Moon is Illuminated
Today
Waning Crescent
Oct 23
New
Oct 30
First Quarter
Nov 6
Full
Nov 14
Last Quarter

Today's Extremes

State Highs State Lows

Community

WunderPhotos

Upload Photos

1,763,902 photos uploaded!

Nearby

Snow Depth

Station Depth Elevation
No new snow has been reported.

Earthquake Activity

City Distance Mag. Time & Date
No recent earthquake activity has been reported nearby.
Minimum magnitude displayed is 2.5.

Coastal Water Temperatures

Place Temperature
Sandy Hook, NJ 61.0 °F
The Battery, NY 63.0 °F
Bergen Point West Reach, NJ 63.0 °F
Kings Point, NY 61.0 °F

Nearby Weather Stations